createdAt,value
2024-05-09T00:01:30.955Z,13.51
2024-05-09T00:04:01.314Z,13.46
2024-05-09T00:06:31.592Z,13.42
2024-05-09T00:09:04.644Z,13.44
2024-05-09T00:11:35.029Z,13.45
2024-05-09T00:14:05.888Z,13.49
2024-05-09T00:16:36.267Z,13.49
2024-05-09T00:19:06.695Z,13.43
2024-05-09T00:21:37.061Z,13.42
2024-05-09T00:24:10.006Z,13.47
2024-05-09T00:26:40.271Z,13.51
2024-05-09T00:29:10.635Z,13.52
2024-05-09T00:31:40.939Z,13.50
2024-05-09T00:34:11.284Z,13.50
2024-05-09T00:36:41.624Z,13.49
2024-05-09T00:39:14.612Z,13.51
2024-05-09T00:41:44.932Z,13.47
2024-05-09T00:44:15.393Z,13.52
2024-05-09T00:46:45.982Z,13.49
2024-05-09T00:49:16.657Z,13.47
2024-05-09T00:51:47.121Z,13.37
2024-05-09T00:54:21.651Z,13.34
2024-05-09T00:56:52.932Z,13.27
2024-05-09T00:59:23.609Z,13.28
2024-05-09T01:01:54.246Z,13.32
2024-05-09T01:04:24.771Z,13.26
2024-05-09T01:06:55.500Z,13.31
2024-05-09T01:09:28.586Z,13.28
2024-05-09T01:11:58.872Z,13.23
2024-05-09T01:14:29.302Z,13.18
2024-05-09T01:16:59.905Z,13.18
2024-05-09T01:19:31.834Z,13.11
2024-05-09T01:22:02.244Z,13.06
2024-05-09T01:24:35.143Z,13.03
2024-05-09T01:27:05.430Z,12.97
2024-05-09T01:29:35.849Z,12.94
2024-05-09T01:32:06.457Z,12.91
2024-05-09T01:34:36.852Z,12.91
2024-05-09T01:37:07.436Z,12.91
2024-05-09T01:39:40.375Z,12.94
2024-05-09T01:42:10.627Z,12.89
2024-05-09T01:44:41.149Z,12.86
2024-05-09T01:47:11.607Z,12.91
2024-05-09T01:49:43.401Z,12.88
2024-05-09T01:52:13.731Z,12.88
2024-05-09T01:54:46.715Z,12.86
2024-05-09T01:57:16.991Z,12.80
2024-05-09T01:59:47.244Z,12.75
2024-05-09T02:02:17.781Z,12.76
2024-05-09T02:04:50.243Z,12.75
2024-05-09T02:07:20.897Z,12.66
2024-05-09T02:09:55.627Z,12.65
2024-05-09T02:12:25.970Z,12.57
2024-05-09T02:14:56.266Z,12.53
2024-05-09T02:17:26.645Z,12.55
2024-05-09T02:19:57.151Z,12.57
2024-05-09T02:22:27.482Z,12.55
2024-05-09T02:25:00.421Z,12.51
2024-05-09T02:27:30.700Z,12.45
2024-05-09T02:30:00.938Z,12.41
2024-05-09T02:32:31.437Z,12.40
2024-05-09T02:35:01.893Z,12.38
2024-05-09T02:37:32.231Z,12.34
2024-05-09T02:40:03.298Z,12.35
2024-05-09T02:42:33.636Z,12.32
2024-05-09T02:45:01.248Z,12.28
2024-05-09T02:47:31.571Z,12.21
2024-05-09T02:49:59.480Z,12.11
2024-05-09T02:52:29.735Z,11.97
2024-05-09T02:54:57.344Z,12.04
2024-05-09T02:57:30.248Z,12.02
2024-05-09T02:59:57.851Z,12.06
2024-05-09T03:02:31.056Z,12.06
2024-05-09T03:04:59.286Z,12.02
2024-05-09T03:07:29.600Z,11.92
2024-05-09T03:09:57.192Z,11.87
2024-05-09T03:12:31.324Z,11.84
2024-05-09T03:14:58.942Z,11.83
2024-05-09T03:17:29.322Z,11.87
2024-05-09T03:19:57.057Z,11.85
2024-05-09T03:22:27.345Z,11.84
2024-05-09T03:24:55.009Z,11.82
2024-05-09T03:27:25.248Z,11.81
2024-05-09T03:29:55.533Z,11.74
2024-05-09T03:32:25.895Z,11.70
2024-05-09T03:34:53.598Z,11.71
2024-05-09T03:37:23.859Z,11.67
2024-05-09T03:39:54.062Z,11.56
2024-05-09T03:42:24.314Z,11.53
2024-05-09T03:44:54.661Z,11.54
2024-05-09T03:47:25.017Z,11.55
2024-05-09T03:49:55.347Z,11.52
2024-05-09T03:52:25.613Z,11.54
2024-05-09T03:54:53.192Z,11.52
2024-05-09T03:57:23.445Z,11.52
2024-05-09T03:59:51.035Z,11.54
2024-05-09T04:02:21.395Z,11.55
2024-05-09T04:04:51.826Z,11.51
2024-05-09T04:07:22.156Z,11.41
2024-05-09T04:09:49.751Z,11.30
2024-05-09T04:12:20.066Z,11.32
2024-05-09T04:14:47.691Z,11.30
2024-05-09T04:17:18.045Z,11.36
2024-05-09T04:19:45.716Z,11.29
2024-05-09T04:22:18.689Z,11.27
2024-05-09T04:24:46.320Z,11.12
2024-05-09T04:27:16.576Z,11.06
2024-05-09T04:29:44.178Z,11.18
2024-05-09T04:32:14.521Z,11.21
2024-05-09T04:34:42.237Z,11.20
2024-05-09T04:37:12.478Z,11.10
2024-05-09T04:39:42.725Z,11.00
2024-05-09T04:42:12.941Z,11.03
2024-05-09T04:44:40.689Z,11.04
2024-05-09T04:47:11.083Z,11.11
2024-05-09T04:49:38.844Z,11.18
2024-05-09T04:52:09.626Z,11.24
2024-05-09T04:54:37.232Z,11.26
2024-05-09T04:57:10.182Z,11.24
2024-05-09T04:59:37.842Z,11.27
2024-05-09T05:02:08.445Z,11.22
2024-05-09T05:04:36.141Z,11.18
2024-05-09T05:07:06.509Z,11.23
2024-05-09T05:09:34.183Z,11.25
2024-05-09T05:12:24.736Z,11.32
2024-05-09T05:14:55.102Z,11.38
2024-05-09T05:17:25.419Z,11.47
2024-05-09T05:19:53.351Z,11.46
2024-05-09T05:22:25.024Z,11.46
2024-05-09T05:24:52.674Z,11.49
2024-05-09T05:27:22.952Z,11.47
2024-05-09T05:29:50.575Z,11.56
2024-05-09T05:32:23.712Z,11.64
2024-05-09T05:34:51.478Z,11.62
2024-05-09T05:37:21.816Z,11.66
2024-05-09T05:39:49.407Z,11.71
2024-05-09T05:42:19.910Z,11.74
2024-05-09T05:44:47.494Z,11.82
2024-05-09T05:47:17.800Z,11.86
2024-05-09T05:49:48.080Z,11.82
2024-05-09T05:52:18.357Z,11.60
2024-05-09T05:54:48.427Z,11.81
2024-05-09T05:57:19.193Z,12.25
2024-05-09T05:59:46.819Z,13.26
2024-05-09T06:02:17.202Z,14.35
2024-05-09T06:04:45.037Z,15.51
2024-05-09T06:07:17.955Z,16.55
2024-05-09T06:09:47.628Z,17.53
2024-05-09T06:12:19.396Z,18.22
2024-05-09T06:14:47.101Z,19.10
2024-05-09T06:17:17.702Z,19.62
2024-05-09T06:19:45.452Z,20.19
2024-05-09T06:22:18.463Z,20.50
2024-05-09T06:24:46.291Z,20.73
2024-05-09T06:27:16.532Z,21.21
2024-05-09T06:29:44.169Z,21.45
2024-05-09T06:32:14.495Z,21.76
2024-05-09T06:34:42.285Z,21.81
2024-05-09T06:37:12.620Z,21.98
